sensor_id;sensor_type;location;lat;lon;timestamp;pressure;altitude;pressure_sealevel;temperature;humidity
21824;BME280;11074;48.596;9.238;2023-11-21T00:01:57;97652.25;;;10.11;99.93
21824;BME280;11074;48.596;9.238;2023-11-21T00:04:24;97653.06;;;10.12;99.97
21824;BME280;11074;48.596;9.238;2023-11-21T00:06:51;97653.56;;;10.09;100.00
21824;BME280;11074;48.596;9.238;2023-11-21T00:09:17;97648.22;;;10.09;100.00
21824;BME280;11074;48.596;9.238;2023-11-21T00:11:43;97643.97;;;10.08;99.81
21824;BME280;11074;48.596;9.238;2023-11-21T00:14:10;97644.22;;;10.06;100.00
21824;BME280;11074;48.596;9.238;2023-11-21T00:16:36;97643.97;;;10.03;100.00
21824;BME280;11074;48.596;9.238;2023-11-21T00:19:02;97648.50;;;10.02;100.00
21824;BME280;11074;48.596;9.238;2023-11-21T00:21:28;97639.13;;;10.00;100.00
21824;BME280;11074;48.596;9.238;2023-11-21T00:23:53;97645.81;;;10.02;100.00
21824;BME280;11074;48.596;9.238;2023-11-21T00:26:19;97642.84;;;9.99;100.00
21824;BME280;11074;48.596;9.238;2023-11-21T00:28:45;97641.81;;;10.00;100.00
21824;BME280;11074;48.596;9.238;2023-11-21T00:31:11;97644.47;;;10.00;100.00
21824;BME280;11074;48.596;9.238;2023-11-21T00:33:37;97641.22;;;9.93;100.00
21824;BME280;11074;48.596;9.238;2023-11-21T00:36:03;97634.53;;;9.90;100.00
21824;BME280;11074;48.596;9.238;2023-11-21T00:38:28;97640.69;;;9.91;100.00
21824;BME280;11074;48.596;9.238;2023-11-21T00:40:54;97642.31;;;9.92;100.00
21824;BME280;11074;48.596;9.238;2023-11-21T00:43:24;97639.09;;;9.90;100.00
21824;BME280;11074;48.596;9.238;2023-11-21T00:45:50;97637.50;;;9.94;100.00
21824;BME280;11074;48.596;9.238;2023-11-21T00:48:16;97635.09;;;9.87;100.00
21824;BME280;11074;48.596;9.238;2023-11-21T00:50:44;97647.66;;;9.97;100.00
21824;BME280;11074;48.596;9.238;2023-11-21T00:53:09;97631.38;;;9.98;100.00
21824;BME280;11074;48.596;9.238;2023-11-21T00:55:37;97638.63;;;10.03;100.00
21824;BME280;11074;48.596;9.238;2023-11-21T00:58:03;97636.44;;;9.90;100.00
21824;BME280;11074;48.596;9.238;2023-11-21T01:00:29;97641.72;;;9.85;100.00
21824;BME280;11074;48.596;9.238;2023-11-21T01:02:55;97633.97;;;9.83;100.00
21824;BME280;11074;48.596;9.238;2023-11-21T01:05:21;97640.97;;;9.94;100.00
21824;BME280;11074;48.596;9.238;2023-11-21T01:07:47;97637.22;;;9.90;100.00
21824;BME280;11074;48.596;9.238;2023-11-21T01:10:13;97633.75;;;9.90;100.00
21824;BME280;11074;48.596;9.238;2023-11-21T01:12:38;97631.28;;;9.78;100.00
21824;BME280;11074;48.596;9.238;2023-11-21T01:15:07;97620.06;;;9.76;100.00
21824;BME280;11074;48.596;9.238;2023-11-21T01:17:33;97621.69;;;9.82;100.00
21824;BME280;11074;48.596;9.238;2023-11-21T01:20:03;97625.97;;;9.83;100.00
21824;BME280;11074;48.596;9.238;2023-11-21T01:22:31;97624.34;;;9.77;100.00
21824;BME280;11074;48.596;9.238;2023-11-21T01:24:57;97623.03;;;9.85;100.00
21824;BME280;11074;48.596;9.238;2023-11-21T01:27:23;97625.69;;;9.85;100.00
21824;BME280;11074;48.596;9.238;2023-11-21T01:29:49;97615.59;;;9.92;100.00
21824;BME280;11074;48.596;9.238;2023-11-21T01:32:14;97613.75;;;9.92;100.00
21824;BME280;11074;48.596;9.238;2023-11-21T01:34:40;97616.41;;;9.87;100.00
21824;BME280;11074;48.596;9.238;2023-11-21T01:37:05;97614.00;;;9.91;100.00
21824;BME280;11074;48.596;9.238;2023-11-21T01:39:31;97604.88;;;9.82;100.00
21824;BME280;11074;48.596;9.238;2023-11-21T01:41:57;97608.66;;;9.91;100.00
21824;BME280;11074;48.596;9.238;2023-11-21T01:44:26;97612.94;;;9.97;100.00
21824;BME280;11074;48.596;9.238;2023-11-21T01:46:52;97606.50;;;9.93;100.00
21824;BME280;11074;48.596;9.238;2023-11-21T01:49:19;97607.00;;;9.80;100.00
21824;BME280;11074;48.596;9.238;2023-11-21T01:51:48;97612.59;;;9.78;100.00
21824;BME280;11074;48.596;9.238;2023-11-21T01:54:17;97606.47;;;9.83;100.00
21824;BME280;11074;48.596;9.238;2023-11-21T01:56:47;97615.84;;;9.85;100.00
21824;BME280;11074;48.596;9.238;2023-11-21T01:59:20;97613.44;;;9.84;100.00
21824;BME280;11074;48.596;9.238;2023-11-21T02:01:47;97608.38;;;9.87;100.00
21824;BME280;11074;48.596;9.238;2023-11-21T02:04:13;97611.00;;;9.82;100.00
21824;BME280;11074;48.596;9.238;2023-11-21T02:06:39;97607.56;;;9.82;100.00
21824;BME280;11074;48.596;9.238;2023-11-21T02:09:05;97613.94;;;9.75;100.00
21824;BME280;11074;48.596;9.238;2023-11-21T02:11:31;97610.72;;;9.73;100.00
21824;BME280;11074;48.596;9.238;2023-11-21T02:13:59;97612.34;;;9.80;100.00
21824;BME280;11074;48.596;9.238;2023-11-21T02:16:26;97606.47;;;9.83;100.00
21824;BME280;11074;48.596;9.238;2023-11-21T02:18:53;97609.44;;;9.86;100.00
21824;BME280;11074;48.596;9.238;2023-11-21T02:21:18;97607.59;;;9.87;100.00
21824;BME280;11074;48.596;9.238;2023-11-21T02:23:47;97605.63;;;9.72;100.00
21824;BME280;11074;48.596;9.238;2023-11-21T02:26:13;97600.28;;;9.72;100.00
21824;BME280;11074;48.596;9.238;2023-11-21T02:28:40;97608.31;;;9.77;100.00
21824;BME280;11074;48.596;9.238;2023-11-21T02:31:06;97598.16;;;9.69;100.00
21824;BME280;11074;48.596;9.238;2023-11-21T02:33:33;97600.47;;;9.55;100.00
21824;BME280;11074;48.596;9.238;2023-11-21T02:36:00;97597.84;;;9.60;100.00
21824;BME280;11074;48.596;9.238;2023-11-21T02:38:26;97599.97;;;9.63;100.00
21824;BME280;11074;48.596;9.238;2023-11-21T02:40:52;97602.59;;;9.48;100.00
21824;BME280;11074;48.596;9.238;2023-11-21T02:43:18;97605.53;;;9.52;100.00
21824;BME280;11074;48.596;9.238;2023-11-21T02:45:44;97602.38;;;9.55;100.00
21824;BME280;11074;48.596;9.238;2023-11-21T02:48:09;97599.94;;;9.53;100.00
21824;BME280;11074;48.596;9.238;2023-11-21T02:50:35;97603.38;;;9.44;100.00
21824;BME280;11074;48.596;9.238;2023-11-21T02:53:01;97594.34;;;9.50;100.00
21824;BME280;11074;48.596;9.238;2023-11-21T02:55:28;97597.72;;;9.40;100.00
21824;BME280;11074;48.596;9.238;2023-11-21T02:57:54;97601.41;;;9.34;100.00
21824;BME280;11074;48.596;9.238;2023-11-21T03:00:21;97602.56;;;9.43;100.00
21824;BME280;11074;48.596;9.238;2023-11-21T03:02:49;97601.78;;;9.48;100.00
21824;BME280;11074;48.596;9.238;2023-11-21T03:05:15;97593.78;;;9.48;100.00
21824;BME280;11074;48.596;9.238;2023-11-21T03:07:41;97606.28;;;9.42;99.88
21824;BME280;11074;48.596;9.238;2023-11-21T03:10:08;97600.44;;;9.45;100.00
21824;BME280;11074;48.596;9.238;2023-11-21T03:12:34;97593.72;;;9.38;100.00
21824;BME280;11074;48.596;9.238;2023-11-21T03:15:00;97598.03;;;9.44;100.00
21824;BME280;11074;48.596;9.238;2023-11-21T03:17:27;97599.09;;;9.48;100.00
21824;BME280;11074;48.596;9.238;2023-11-21T03:19:54;97601.22;;;9.46;100.00
21824;BME280;11074;48.596;9.238;2023-11-21T03:22:20;97600.44;;;9.45;100.00
21824;BME280;11074;48.596;9.238;2023-11-21T03:24:46;97604.72;;;9.46;99.92
21824;BME280;11074;48.596;9.238;2023-11-21T03:27:11;97600.41;;;9.40;99.82
21824;BME280;11074;48.596;9.238;2023-11-21T03:29:37;97607.81;;;9.28;100.00
21824;BME280;11074;48.596;9.238;2023-11-21T03:32:04;97602.50;;;9.33;99.58
21824;BME280;11074;48.596;9.238;2023-11-21T03:34:30;97600.88;;;9.32;100.00
21824;BME280;11074;48.596;9.238;2023-11-21T03:36:55;97598.75;;;9.34;100.00
21824;BME280;11074;48.596;9.238;2023-11-21T03:39:21;97605.19;;;9.38;99.85
21824;BME280;11074;48.596;9.238;2023-11-21T03:41:48;97602.53;;;9.38;99.84
21824;BME280;11074;48.596;9.238;2023-11-21T03:44:14;97610.84;;;9.42;100.00
21824;BME280;11074;48.596;9.238;2023-11-21T03:46:40;97595.84;;;9.36;99.64
21824;BME280;11074;48.596;9.238;2023-11-21T03:49:06;97608.81;;;9.22;100.00
21824;BME280;11074;48.596;9.238;2023-11-21T03:51:33;97607.00;;;9.28;99.97
21824;BME280;11074;48.596;9.238;2023-11-21T03:53:59;97601.97;;;9.31;100.00
21824;BME280;11074;48.596;9.238;2023-11-21T03:56:25;97612.38;;;9.33;99.93
21824;BME280;11074;48.596;9.238;2023-11-21T03:58:50;97620.28;;;9.18;100.00
21824;BME280;11074;48.596;9.238;2023-11-21T04:01:22;97601.38;;;9.29;99.87
21824;BME280;11074;48.596;9.238;2023-11-21T04:03:49;97602.66;;;9.17;100.00
21824;BME280;11074;48.596;9.238;2023-11-21T04:06:15;97606.44;;;9.21;100.00
21824;BME280;11074;48.596;9.238;2023-11-21T04:08:40;97605.31;;;9.17;100.00
21824;BME280;11074;48.596;9.238;2023-11-21T04:11:06;97602.97;;;9.25;100.00
21824;BME280;11074;48.596;9.238;2023-11-21T04:13:31;97608.63;;;9.29;99.75
21824;BME280;11074;48.596;9.238;2023-11-21T04:15:57;97613.13;;;9.28;100.00
21824;BME280;11074;48.596;9.238;2023-11-21T04:18:23;97615.81;;;9.28;99.79
21824;BME280;11074;48.596;9.238;2023-11-21T04:20:49;97612.28;;;9.18;100.00
21824;BME280;11074;48.596;9.238;2023-11-21T04:23:15;97604.84;;;9.25;100.00
21824;BME280;11074;48.596;9.238;2023-11-21T04:25:41;97609.97;;;9.31;100.00
21824;BME280;11074;48.596;9.238;2023-11-21T04:28:06;97610.50;;;9.33;100.00
21824;BME280;11074;48.596;9.238;2023-11-21T04:30:32;97613.34;;;9.22;100.00
21824;BME280;11074;48.596;9.238;2023-11-21T04:32:58;97615.53;;;9.30;100.00
21824;BME280;11074;48.596;9.238;2023-11-21T04:35:24;97615.22;;;9.21;100.00
21824;BME280;11074;48.596;9.238;2023-11-21T04:37:49;97617.97;;;9.31;100.00
21824;BME280;11074;48.596;9.238;2023-11-21T04:40:16;97629.22;;;9.43;100.00
21824;BME280;11074;48.596;9.238;2023-11-21T04:42:42;97622.25;;;9.37;100.00
21824;BME280;11074;48.596;9.238;2023-11-21T04:45:08;97621.78;;;9.50;99.35
21824;BME280;11074;48.596;9.238;2023-11-21T04:47:35;97633.28;;;9.51;99.53
21824;BME280;11074;48.596;9.238;2023-11-21T04:50:03;97633.44;;;9.34;99.08
21824;BME280;11074;48.596;9.238;2023-11-21T04:52:29;97644.16;;;9.39;98.51
21824;BME280;11074;48.596;9.238;2023-11-21T04:54:55;97635.69;;;9.47;98.51
21824;BME280;11074;48.596;9.238;2023-11-21T04:57:23;97635.69;;;9.47;98.15
21824;BME280;11074;48.596;9.238;2023-11-21T04:59:49;97636.75;;;9.51;98.39
21824;BME280;11074;48.596;9.238;2023-11-21T05:02:16;97643.94;;;9.51;99.12
21824;BME280;11074;48.596;9.238;2023-11-21T05:04:41;97636.47;;;9.53;98.76
21824;BME280;11074;48.596;9.238;2023-11-21T05:07:08;97636.22;;;9.49;99.34
21824;BME280;11074;48.596;9.238;2023-11-21T05:09:34;97643.16;;;9.55;99.91
21824;BME280;11074;48.596;9.238;2023-11-21T05:12:01;97640.47;;;9.50;99.98
21824;BME280;11074;48.596;9.238;2023-11-21T05:14:27;97643.44;;;9.54;100.00
21824;BME280;11074;48.596;9.238;2023-11-21T05:16:53;97647.41;;;9.46;100.00
21824;BME280;11074;48.596;9.238;2023-11-21T05:19:18;97643.41;;;9.49;100.00
21824;BME280;11074;48.596;9.238;2023-11-21T05:21:44;97649.34;;;9.61;100.00
21824;BME280;11074;48.596;9.238;2023-11-21T05:24:10;97644.47;;;9.53;100.00
21824;BME280;11074;48.596;9.238;2023-11-21T05:26:35;97650.13;;;9.56;100.00
21824;BME280;11074;48.596;9.238;2023-11-21T05:29:01;97650.63;;;9.53;100.00
21824;BME280;11074;48.596;9.238;2023-11-21T05:31:27;97659.16;;;9.55;100.00
21824;BME280;11074;48.596;9.238;2023-11-21T05:33:52;97653.91;;;9.60;100.00
21824;BME280;11074;48.596;9.238;2023-11-21T05:36:18;97649.31;;;9.56;100.00
21824;BME280;11074;48.596;9.238;2023-11-21T05:38:44;97663.00;;;9.69;100.00
21824;BME280;11074;48.596;9.238;2023-11-21T05:41:11;97664.63;;;9.70;99.50
21824;BME280;11074;48.596;9.238;2023-11-21T05:43:39;97664.66;;;9.75;99.62
21824;BME280;11074;48.596;9.238;2023-11-21T05:46:05;97677.09;;;9.60;99.22
21824;BME280;11074;48.596;9.238;2023-11-21T05:48:32;97669.63;;;9.62;99.94
21824;BME280;11074;48.596;9.238;2023-11-21T05:50:58;97666.69;;;9.63;99.30
21824;BME280;11074;48.596;9.238;2023-11-21T05:53:24;97675.78;;;9.62;98.99
21824;BME280;11074;48.596;9.238;2023-11-21T05:55:53;97671.53;;;9.66;99.01
21824;BME280;11074;48.596;9.238;2023-11-21T05:58:18;97669.13;;;9.65;98.56
21824;BME280;11074;48.596;9.238;2023-11-21T06:00:44;97668.84;;;9.66;99.02
21824;BME280;11074;48.596;9.238;2023-11-21T06:03:10;97675.19;;;9.55;99.75
21824;BME280;11074;48.596;9.238;2023-11-21T06:05:36;97670.34;;;9.47;100.00
21824;BME280;11074;48.596;9.238;2023-11-21T06:08:01;97680.53;;;9.55;100.00
21824;BME280;11074;48.596;9.238;2023-11-21T06:10:27;97684.03;;;9.61;99.25
21824;BME280;11074;48.596;9.238;2023-11-21T06:12:53;97682.16;;;9.61;98.96
21824;BME280;11074;48.596;9.238;2023-11-21T06:15:19;97687.84;;;9.70;99.20
21824;BME280;11074;48.596;9.238;2023-11-21T06:17:46;97683.81;;;9.67;99.14
21824;BME280;11074;48.596;9.238;2023-11-21T06:20:15;97690.81;;;9.73;99.90
21824;BME280;11074;48.596;9.238;2023-11-21T06:22:46;97693.97;;;9.70;99.18
21824;BME280;11074;48.596;9.238;2023-11-21T06:25:13;97692.38;;;9.69;99.68
21824;BME280;11074;48.596;9.238;2023-11-21T06:27:42;97688.84;;;9.64;100.00
21824;BME280;11074;48.596;9.238;2023-11-21T06:30:08;97698.66;;;9.53;100.00
21824;BME280;11074;48.596;9.238;2023-11-21T06:32:39;97699.50;;;9.59;100.00
21824;BME280;11074;48.596;9.238;2023-11-21T06:35:06;97706.19;;;9.61;100.00
21824;BME280;11074;48.596;9.238;2023-11-21T06:37:32;97710.09;;;9.49;100.00
21824;BME280;11074;48.596;9.238;2023-11-21T06:40:00;97724.25;;;9.49;100.00
21824;BME280;11074;48.596;9.238;2023-11-21T06:42:26;97725.56;;;9.47;100.00
21824;BME280;11074;48.596;9.238;2023-11-21T06:44:53;97719.72;;;9.50;100.00
21824;BME280;11074;48.596;9.238;2023-11-21T06:47:25;97720.44;;;9.40;100.00
21824;BME280;11074;48.596;9.238;2023-11-21T06:49:52;97727.31;;;9.31;100.00
21824;BME280;11074;48.596;9.238;2023-11-21T06:52:18;97729.66;;;9.23;100.00
21824;BME280;11074;48.596;9.238;2023-11-21T06:54:45;97732.13;;;9.34;100.00
21824;BME280;11074;48.596;9.238;2023-11-21T06:57:11;97744.41;;;9.35;100.00
21824;BME280;11074;48.596;9.238;2023-11-21T06:59:37;97737.13;;;9.26;100.00
21824;BME280;11074;48.596;9.238;2023-11-21T07:02:03;97731.97;;;9.14;100.00
21824;BME280;11074;48.596;9.238;2023-11-21T07:04:38;97743.06;;;9.33;100.00
21824;BME280;11074;48.596;9.238;2023-11-21T07:07:04;97746.06;;;9.41;100.00
21824;BME280;11074;48.596;9.238;2023-11-21T07:09:32;97744.25;;;9.47;100.00
21824;BME280;11074;48.596;9.238;2023-11-21T07:11:58;97745.13;;;9.57;100.00
21824;BME280;11074;48.596;9.238;2023-11-21T07:14:23;97749.44;;;9.63;100.00
21824;BME280;11074;48.596;9.238;2023-11-21T07:16:49;97748.66;;;9.63;100.00
21824;BME280;11074;48.596;9.238;2023-11-21T07:19:15;97749.91;;;9.55;100.00
21824;BME280;11074;48.596;9.238;2023-11-21T07:21:41;97755.31;;;9.60;100.00
21824;BME280;11074;48.596;9.238;2023-11-21T07:24:08;97754.22;;;9.61;100.00
21824;BME280;11074;48.596;9.238;2023-11-21T07:26:35;97758.81;;;9.66;100.00
21824;BME280;11074;48.596;9.238;2023-11-21T07:29:02;97755.34;;;9.65;100.00
21824;BME280;11074;48.596;9.238;2023-11-21T07:31:31;97750.31;;;9.74;100.00
21824;BME280;11074;48.596;9.238;2023-11-21T07:33:59;97747.94;;;9.77;100.00
21824;BME280;11074;48.596;9.238;2023-11-21T07:36:26;97757.59;;;9.84;100.00
21824;BME280;11074;48.596;9.238;2023-11-21T07:38:53;97756.31;;;9.91;100.00
21824;BME280;11074;48.596;9.238;2023-11-21T07:41:19;97756.56;;;9.90;100.00
21824;BME280;11074;48.596;9.238;2023-11-21T07:43:45;97766.16;;;9.91;100.00
21824;BME280;11074;48.596;9.238;2023-11-21T07:46:12;97770.50;;;9.97;100.00
21824;BME280;11074;48.596;9.238;2023-11-21T07:48:40;97775.03;;;10.01;99.66
21824;BME280;11074;48.596;9.238;2023-11-21T07:51:06;97770.97;;;9.89;100.00
21824;BME280;11074;48.596;9.238;2023-11-21T07:53:32;97772.81;;;9.88;100.00
21824;BME280;11074;48.596;9.238;2023-11-21T07:56:03;97775.81;;;9.92;99.95
21824;BME280;11074;48.596;9.238;2023-11-21T07:58:30;97784.84;;;9.91;100.00
21824;BME280;11074;48.596;9.238;2023-11-21T08:01:00;97773.97;;;9.97;100.00
21824;BME280;11074;48.596;9.238;2023-11-21T08:03:25;97779.00;;;9.94;100.00
21824;BME280;11074;48.596;9.238;2023-11-21T08:05:58;97778.50;;;9.97;100.00
21824;BME280;11074;48.596;9.238;2023-11-21T08:08:24;97783.03;;;9.96;100.00
21824;BME280;11074;48.596;9.238;2023-11-21T08:10:51;97791.38;;;10.05;100.00
21824;BME280;11074;48.596;9.238;2023-11-21T08:13:27;97787.09;;;10.09;99.28
21824;BME280;11074;48.596;9.238;2023-11-21T08:15:58;97790.09;;;10.12;99.29
21824;BME280;11074;48.596;9.238;2023-11-21T08:18:31;97779.44;;;10.12;99.75
21824;BME280;11074;48.596;9.238;2023-11-21T08:20:56;97786.13;;;10.20;100.00
21824;BME280;11074;48.596;9.238;2023-11-21T08:23:23;97782.66;;;10.19;100.00
21824;BME280;11074;48.596;9.238;2023-11-21T08:25:52;97788.28;;;10.18;99.36
21824;BME280;11074;48.596;9.238;2023-11-21T08:28:19;97793.88;;;10.16;99.68
21824;BME280;11074;48.596;9.238;2023-11-21T08:30:45;97795.47;;;10.17;100.00
21824;BME280;11074;48.596;9.238;2023-11-21T08:33:10;97794.44;;;10.23;99.66
21824;BME280;11074;48.596;9.238;2023-11-21T08:35:38;97792.03;;;10.22;99.79
21824;BME280;11074;48.596;9.238;2023-11-21T08:38:03;97801.16;;;10.26;99.29
21824;BME280;11074;48.596;9.238;2023-11-21T08:40:30;97800.59;;;10.24;99.96
21824;BME280;11074;48.596;9.238;2023-11-21T08:42:56;97806.22;;;10.27;99.91
21824;BME280;11074;48.596;9.238;2023-11-21T08:45:25;97805.13;;;10.23;99.41
21824;BME280;11074;48.596;9.238;2023-11-21T08:47:51;97804.59;;;10.21;99.41
21824;BME280;11074;48.596;9.238;2023-11-21T08:50:17;97808.34;;;10.25;98.67
21824;BME280;11074;48.596;9.238;2023-11-21T08:52:44;97805.34;;;10.17;100.00
21824;BME280;11074;48.596;9.238;2023-11-21T08:55:11;97805.13;;;10.23;99.05
21824;BME280;11074;48.596;9.238;2023-11-21T08:57:43;97808.31;;;10.20;99.36
21824;BME280;11074;48.596;9.238;2023-11-21T09:00:09;97805.88;;;10.14;98.60
21824;BME280;11074;48.596;9.238;2023-11-21T09:02:43;97812.09;;;10.24;98.28
21824;BME280;11074;48.596;9.238;2023-11-21T09:05:11;97815.56;;;10.30;98.78
21824;BME280;11074;48.596;9.238;2023-11-21T09:07:39;97815.38;;;10.37;98.36
21824;BME280;11074;48.596;9.238;2023-11-21T09:10:07;97822.84;;;10.34;98.05
21824;BME280;11074;48.596;9.238;2023-11-21T09:12:35;97823.66;;;10.35;97.70
21824;BME280;11074;48.596;9.238;2023-11-21T09:15:04;97830.34;;;10.38;97.62
21824;BME280;11074;48.596;9.238;2023-11-21T09:17:30;97823.09;;;10.38;97.48
21824;BME280;11074;48.596;9.238;2023-11-21T09:19:56;97828.91;;;10.25;96.84
21824;BME280;11074;48.596;9.238;2023-11-21T09:22:22;97819.63;;;10.32;97.00
21824;BME280;11074;48.596;9.238;2023-11-21T09:24:51;97825.84;;;10.43;97.28
21824;BME280;11074;48.596;9.238;2023-11-21T09:27:16;97827.97;;;10.46;97.06
21824;BME280;11074;48.596;9.238;2023-11-21T09:29:43;97833.84;;;10.43;96.86
21824;BME280;11074;48.596;9.238;2023-11-21T09:32:09;97831.41;;;10.42;95.33
21824;BME280;11074;48.596;9.238;2023-11-21T09:34:38;97825.25;;;10.36;95.60
21824;BME280;11074;48.596;9.238;2023-11-21T09:37:04;97837.81;;;10.41;94.97
21824;BME280;11074;48.596;9.238;2023-11-21T09:39:35;97834.38;;;10.45;95.22
21824;BME280;11074;48.596;9.238;2023-11-21T09:42:12;97835.00;;;10.62;94.30
21824;BME280;11074;48.596;9.238;2023-11-21T09:47:26;97839.94;;;10.90;93.76
21824;BME280;11074;48.596;9.238;2023-11-21T09:49:56;97849.03;;;10.89;92.52
21824;BME280;11074;48.596;9.238;2023-11-21T09:52:27;97850.34;;;10.82;92.66
21824;BME280;11074;48.596;9.238;2023-11-21T09:54:54;97847.97;;;10.90;92.25
21824;BME280;11074;48.596;9.238;2023-11-21T09:57:24;97846.66;;;10.98;92.31
21824;BME280;11074;48.596;9.238;2023-11-21T09:59:52;97849.56;;;10.96;93.07
21824;BME280;11074;48.596;9.238;2023-11-21T10:02:27;97855.50;;;10.99;93.36
21824;BME280;11074;48.596;9.238;2023-11-21T10:04:59;97851.72;;;11.00;92.55
21824;BME280;11074;48.596;9.238;2023-11-21T10:07:26;97856.00;;;10.95;93.87
21824;BME280;11074;48.596;9.238;2023-11-21T10:09:55;97854.13;;;10.91;93.31
21824;BME280;11074;48.596;9.238;2023-11-21T10:12:23;97856.22;;;10.89;93.99
21824;BME280;11074;48.596;9.238;2023-11-21T10:14:51;97854.91;;;10.91;93.62
21824;BME280;11074;48.596;9.238;2023-11-21T10:17:19;97859.41;;;10.81;94.84
21824;BME280;11074;48.596;9.238;2023-11-21T10:19:47;97854.34;;;10.79;94.03
21824;BME280;11074;48.596;9.238;2023-11-21T10:22:15;97857.00;;;10.79;94.35
21824;BME280;11074;48.596;9.238;2023-11-21T10:24:42;97861.00;;;10.77;95.21
21824;BME280;11074;48.596;9.238;2023-11-21T10:27:09;97856.44;;;10.72;95.10
21824;BME280;11074;48.596;9.238;2023-11-21T10:29:34;97867.69;;;10.79;95.48
21824;BME280;11074;48.596;9.238;2023-11-21T10:32:02;97861.56;;;10.84;95.64
21824;BME280;11074;48.596;9.238;2023-11-21T10:34:29;97859.69;;;10.79;96.23
21824;BME280;11074;48.596;9.238;2023-11-21T10:36:55;97868.00;;;10.88;96.04
21824;BME280;11074;48.596;9.238;2023-11-21T10:39:24;97867.22;;;10.92;95.44
21824;BME280;11074;48.596;9.238;2023-11-21T10:41:55;97863.75;;;10.97;96.54
21824;BME280;11074;48.596;9.238;2023-11-21T10:44:21;97863.78;;;11.02;96.03
21824;BME280;11074;48.596;9.238;2023-11-21T10:46:53;97859.25;;;11.13;95.94
21824;BME280;11074;48.596;9.238;2023-11-21T10:49:24;97860.59;;;11.15;95.89
21824;BME280;11074;48.596;9.238;2023-11-21T10:51:53;97862.22;;;11.16;95.39
21824;BME280;11074;48.596;9.238;2023-11-21T10:54:20;97871.59;;;11.24;95.54
21824;BME280;11074;48.596;9.238;2023-11-21T10:56:50;97871.88;;;11.17;96.17
21824;BME280;11074;48.596;9.238;2023-11-21T10:59:17;97864.59;;;11.08;94.49
21824;BME280;11074;48.596;9.238;2023-11-21T11:01:45;97863.03;;;11.17;95.45
21824;BME280;11074;48.596;9.238;2023-11-21T11:04:15;97857.16;;;11.15;95.37
21824;BME280;11074;48.596;9.238;2023-11-21T11:06:51;97864.38;;;11.19;95.84
21824;BME280;11074;48.596;9.238;2023-11-21T11:09:20;97867.84;;;11.15;95.60
21824;BME280;11074;48.596;9.238;2023-11-21T11:11:46;97863.03;;;11.17;95.29
21824;BME280;11074;48.596;9.238;2023-11-21T11:14:13;97856.59;;;11.13;95.24
21824;BME280;11074;48.596;9.238;2023-11-21T11:16:41;97863.56;;;11.14;95.65
21824;BME280;11074;48.596;9.238;2023-11-21T11:19:09;97863.56;;;11.14;95.80
21824;BME280;11074;48.596;9.238;2023-11-21T11:22:24;97866.50;;;11.12;95.63
21824;BME280;11074;48.596;9.238;2023-11-21T11:25:08;97858.22;;;11.14;96.25
21824;BME280;11074;48.596;9.238;2023-11-21T11:28:07;97863.25;;;11.10;96.30
21824;BME280;11074;48.596;9.238;2023-11-21T11:31:05;97858.72;;;11.11;96.74
21824;BME280;11074;48.596;9.238;2023-11-21T11:33:57;97854.38;;;10.94;96.73
21824;BME280;11074;48.596;9.238;2023-11-21T11:36:37;97857.06;;;10.94;96.38
21824;BME280;11074;48.596;9.238;2023-11-21T11:39:37;97859.69;;;10.84;96.21
21824;BME280;11074;48.596;9.238;2023-11-21T11:42:07;97866.69;;;10.90;95.11
21824;BME280;11074;48.596;9.238;2023-11-21T11:47:26;97876.28;;;10.86;95.66
21824;BME280;11074;48.596;9.238;2023-11-21T11:52:50;97870.09;;;10.81;97.87
21824;BME280;11074;48.596;9.238;2023-11-21T11:55:19;97877.59;;;10.79;98.85
21824;BME280;11074;48.596;9.238;2023-11-21T11:57:50;97876.25;;;10.76;98.91
21824;BME280;11074;48.596;9.238;2023-11-21T12:00:21;97879.69;;;10.67;100.00
21824;BME280;11074;48.596;9.238;2023-11-21T12:02:58;97874.88;;;10.69;99.25
21824;BME280;11074;48.596;9.238;2023-11-21T12:05:27;97876.72;;;10.63;99.80
21824;BME280;11074;48.596;9.238;2023-11-21T12:07:56;97872.19;;;10.69;99.75
21824;BME280;11074;48.596;9.238;2023-11-21T12:10:28;97871.38;;;10.68;99.46
21824;BME280;11074;48.596;9.238;2023-11-21T12:13:00;97881.81;;;10.70;100.00
21824;BME280;11074;48.596;9.238;2023-11-21T12:15:27;97879.91;;;10.65;100.00
21824;BME280;11074;48.596;9.238;2023-11-21T12:17:57;97879.88;;;10.55;100.00
21824;BME280;11074;48.596;9.238;2023-11-21T12:20:27;97891.41;;;10.61;100.00
21824;BME280;11074;48.596;9.238;2023-11-21T12:22:58;97893.72;;;10.47;99.35
21824;BME280;11074;48.596;9.238;2023-11-21T12:25:30;97885.44;;;10.49;100.00
21824;BME280;11074;48.596;9.238;2023-11-21T12:28:01;97896.19;;;10.59;100.00
21824;BME280;11074;48.596;9.238;2023-11-21T12:30:30;97888.44;;;10.62;100.00
21824;BME280;11074;48.596;9.238;2023-11-21T12:32:59;97888.47;;;10.67;100.00
21824;BME280;11074;48.596;9.238;2023-11-21T12:35:28;97896.25;;;10.69;100.00
21824;BME280;11074;48.596;9.238;2023-11-21T12:37:55;97893.09;;;10.77;100.00
21824;BME280;11074;48.596;9.238;2023-11-21T12:40:24;97898.75;;;10.80;100.00
21824;BME280;11074;48.596;9.238;2023-11-21T12:42:56;97904.09;;;10.85;100.00
21824;BME280;11074;48.596;9.238;2023-11-21T12:45:25;97897.97;;;10.90;100.00
21824;BME280;11074;48.596;9.238;2023-11-21T12:48:02;97896.31;;;10.84;100.00
21824;BME280;11074;48.596;9.238;2023-11-21T12:50:33;97898.50;;;10.92;100.00
21824;BME280;11074;48.596;9.238;2023-11-21T12:53:06;97897.19;;;10.94;100.00
21824;BME280;11074;48.596;9.238;2023-11-21T12:55:37;97902.56;;;11.05;100.00
21824;BME280;11074;48.596;9.238;2023-11-21T12:58:06;97899.38;;;11.13;100.00
21824;BME280;11074;48.596;9.238;2023-11-21T13:03:06;97903.19;;;11.22;100.00
21824;BME280;11074;48.596;9.238;2023-11-21T13:05:40;97897.81;;;11.22;100.00
21824;BME280;11074;48.596;9.238;2023-11-21T13:08:11;97889.81;;;11.27;100.00
21824;BME280;11074;48.596;9.238;2023-11-21T13:10:41;97897.84;;;11.27;100.00
21824;BME280;11074;48.596;9.238;2023-11-21T13:13:11;97891.97;;;11.30;99.97
21824;BME280;11074;48.596;9.238;2023-11-21T13:15:55;97892.50;;;11.27;99.96